createdAt,value
2018-11-06T00:02:07.726Z,23.07
2018-11-06T00:04:43.596Z,18.13
2018-11-06T00:07:14.266Z,17.77
2018-11-06T00:09:44.999Z,19.23
2018-11-06T00:12:15.752Z,19.57
2018-11-06T00:14:46.494Z,20.43
2018-11-06T00:17:17.169Z,16.77
2018-11-06T00:19:47.784Z,19.23
2018-11-06T00:22:18.441Z,21.83
2018-11-06T00:24:49.083Z,18.90
2018-11-06T00:27:19.745Z,22.37
2018-11-06T00:29:50.381Z,20.90
2018-11-06T00:32:21.044Z,18.63
2018-11-06T00:34:51.704Z,18.73
2018-11-06T00:37:22.386Z,19.43
2018-11-06T00:39:53.046Z,21.37
2018-11-06T00:42:23.727Z,17.43
2018-11-06T00:44:54.471Z,18.83
2018-11-06T00:47:25.165Z,20.10
2018-11-06T00:49:55.808Z,18.03
2018-11-06T00:52:26.514Z,16.93
2018-11-06T00:54:57.173Z,17.90
2018-11-06T00:57:27.811Z,17.93
2018-11-06T00:59:58.817Z,19.13
2018-11-06T01:02:29.453Z,19.00
2018-11-06T01:05:00.175Z,19.80
2018-11-06T01:07:31.267Z,19.13
2018-11-06T01:10:01.996Z,17.37
2018-11-06T01:12:32.686Z,19.07
2018-11-06T01:15:03.610Z,19.53
2018-11-06T01:17:34.303Z,20.73
2018-11-06T01:20:06.288Z,15.47
2018-11-06T01:22:37.046Z,17.73
2018-11-06T01:25:09.039Z,17.77
2018-11-06T01:27:39.952Z,16.53
2018-11-06T01:30:13.826Z,17.13
2018-11-06T01:32:45.292Z,17.83
2018-11-06T01:35:16.468Z,20.80
2018-11-06T01:37:47.630Z,18.43
2018-11-06T01:40:19.207Z,18.63
2018-11-06T01:42:49.857Z,15.63
2018-11-06T01:45:20.566Z,18.00
2018-11-06T01:47:51.221Z,16.17
2018-11-06T01:50:21.992Z,15.53
2018-11-06T01:52:52.735Z,16.57
2018-11-06T01:55:23.376Z,18.47
2018-11-06T01:57:54.058Z,19.17
2018-11-06T02:00:24.703Z,15.27
2018-11-06T02:02:55.341Z,16.50
2018-11-06T02:05:26.014Z,16.47
2018-11-06T02:07:56.667Z,18.17
2018-11-06T02:10:27.319Z,15.27
2018-11-06T02:12:57.903Z,16.33
2018-11-06T02:15:28.564Z,14.13
2018-11-06T02:17:59.225Z,15.63
2018-11-06T02:20:29.843Z,15.37
2018-11-06T02:23:00.479Z,18.93
2018-11-06T02:25:31.111Z,18.43
2018-11-06T02:28:01.688Z,17.60
2018-11-06T02:30:32.408Z,18.57
2018-11-06T02:33:03.026Z,16.13
2018-11-06T02:35:33.640Z,17.20
2018-11-06T02:38:04.391Z,17.27
2018-11-06T02:40:35.041Z,17.40
2018-11-06T02:43:05.842Z,16.83
2018-11-06T02:45:36.482Z,14.13
2018-11-06T02:48:07.727Z,14.77
2018-11-06T02:50:38.407Z,17.53
2018-11-06T02:53:09.048Z,16.13
2018-11-06T02:55:39.693Z,15.53
2018-11-06T02:58:10.348Z,15.80
2018-11-06T03:00:41.012Z,15.13
2018-11-06T03:03:11.682Z,14.63
2018-11-06T03:05:42.271Z,15.23
2018-11-06T03:08:12.912Z,15.30
2018-11-06T03:10:43.528Z,14.80
2018-11-06T03:13:14.224Z,15.10
2018-11-06T03:15:44.893Z,16.87
2018-11-06T03:18:15.532Z,14.53
2018-11-06T03:20:46.239Z,15.87
2018-11-06T03:23:16.844Z,14.53
2018-11-06T03:25:47.546Z,14.07
2018-11-06T03:28:18.230Z,15.77
2018-11-06T03:30:48.887Z,16.27
2018-11-06T03:33:19.563Z,15.17
2018-11-06T03:35:50.265Z,14.67
2018-11-06T03:38:21.059Z,15.07
2018-11-06T03:40:51.724Z,12.43
2018-11-06T03:43:22.387Z,14.70
2018-11-06T03:45:53.009Z,14.93
2018-11-06T03:48:23.708Z,15.00
2018-11-06T03:50:54.392Z,14.10
2018-11-06T03:53:25.033Z,13.67
2018-11-06T03:55:55.728Z,13.17
2018-11-06T03:58:26.342Z,14.97
2018-11-06T04:00:56.993Z,14.27
2018-11-06T04:03:27.615Z,13.93
2018-11-06T04:05:58.359Z,15.17
2018-11-06T04:08:29.042Z,13.90
2018-11-06T04:10:59.723Z,15.37
2018-11-06T04:13:30.351Z,13.80
2018-11-06T04:16:01.023Z,12.13
2018-11-06T04:18:31.682Z,15.60
2018-11-06T04:21:02.349Z,12.40
2018-11-06T04:23:32.935Z,14.47
2018-11-06T04:26:03.641Z,13.93
2018-11-06T04:28:34.255Z,12.93
2018-11-06T04:31:05.139Z,14.13
2018-11-06T04:33:35.808Z,12.83
2018-11-06T04:36:06.486Z,13.37
2018-11-06T04:38:37.168Z,14.63
2018-11-06T04:41:07.847Z,14.87
2018-11-06T04:43:38.410Z,13.90
2018-11-06T04:46:09.049Z,13.63
2018-11-06T04:48:39.761Z,11.50
2018-11-06T04:51:10.342Z,12.60
2018-11-06T04:53:40.938Z,14.53
2018-11-06T04:56:11.600Z,14.87
2018-11-06T04:58:42.232Z,11.33
2018-11-06T05:01:12.884Z,13.23
2018-11-06T05:03:46.514Z,12.00
2018-11-06T05:06:48.162Z,12.20
2018-11-06T05:09:18.772Z,13.17
2018-11-06T05:11:49.415Z,11.80
2018-11-06T05:14:20.089Z,13.13
2018-11-06T05:16:50.706Z,13.97
2018-11-06T05:19:21.405Z,12.10
2018-11-06T05:21:52.066Z,11.17
2018-11-06T05:24:22.690Z,11.30
2018-11-06T05:26:53.331Z,11.23
2018-11-06T05:29:23.993Z,11.77
2018-11-06T05:31:54.727Z,13.93
2018-11-06T05:34:25.393Z,15.73
2018-11-06T05:36:56.083Z,12.67
2018-11-06T05:39:26.840Z,11.30
2018-11-06T05:41:57.431Z,15.23
2018-11-06T05:44:28.040Z,13.00
2018-11-06T05:46:58.724Z,13.13
2018-11-06T05:49:29.369Z,13.07
2018-11-06T05:52:00.014Z,12.17
2018-11-06T05:54:30.664Z,14.17
2018-11-06T05:57:01.314Z,14.07
2018-11-06T05:59:31.972Z,15.90
2018-11-06T06:02:02.651Z,11.80
2018-11-06T06:04:33.319Z,10.73
2018-11-06T06:07:03.985Z,12.90
2018-11-06T06:09:34.660Z,11.37
2018-11-06T06:12:05.463Z,10.87
2018-11-06T06:14:36.099Z,11.47
2018-11-06T06:17:07.796Z,11.97
2018-11-06T06:19:38.503Z,12.37
2018-11-06T06:22:09.190Z,12.53
2018-11-06T06:24:39.848Z,13.13
2018-11-06T06:27:10.499Z,12.03
2018-11-06T06:29:41.195Z,13.27
2018-11-06T06:32:11.795Z,11.93
2018-11-06T06:34:42.564Z,13.13
2018-11-06T06:37:13.091Z,13.13
2018-11-06T06:39:43.711Z,14.07
2018-11-06T06:42:14.379Z,14.33
2018-11-06T06:44:45.073Z,13.83
2018-11-06T06:47:15.821Z,14.50
2018-11-06T06:49:46.482Z,12.07
2018-11-06T06:52:17.136Z,12.97
2018-11-06T06:54:47.931Z,12.10
2018-11-06T06:57:18.611Z,13.50
2018-11-06T06:59:49.336Z,13.60
2018-11-06T07:02:20.049Z,13.57
2018-11-06T07:04:50.704Z,14.10
2018-11-06T07:07:21.358Z,15.50
2018-11-06T07:09:52.046Z,15.70
2018-11-06T07:12:22.688Z,14.43
2018-11-06T07:14:53.460Z,19.10
2018-11-06T07:17:24.122Z,13.37
2018-11-06T07:19:54.780Z,16.47
2018-11-06T07:22:25.451Z,14.47
2018-11-06T07:24:56.103Z,13.00
2018-11-06T07:27:26.796Z,12.37
2018-11-06T07:29:57.601Z,13.67
2018-11-06T07:32:28.454Z,14.83
2018-11-06T07:34:59.247Z,14.63
2018-11-06T07:37:29.896Z,15.03
2018-11-06T07:40:00.564Z,14.53
2018-11-06T07:42:31.564Z,13.37
2018-11-06T07:45:02.332Z,13.33
2018-11-06T07:47:33.048Z,13.67
2018-11-06T07:50:03.773Z,14.00
2018-11-06T07:52:34.497Z,12.20
2018-11-06T07:55:06.276Z,14.43
2018-11-06T07:57:36.969Z,14.87
2018-11-06T08:00:17.356Z,15.23
2018-11-06T08:02:48.700Z,11.50
2018-11-06T08:05:19.546Z,12.17
2018-11-06T08:07:51.028Z,14.17
2018-11-06T08:10:21.811Z,11.90
2018-11-06T08:12:53.827Z,12.03
2018-11-06T08:15:24.533Z,14.30
2018-11-06T08:17:55.204Z,13.00
2018-11-06T08:20:25.909Z,14.00
2018-11-06T08:22:56.568Z,12.10
2018-11-06T08:25:27.183Z,11.33
2018-11-06T08:27:57.844Z,11.17
2018-11-06T08:30:28.531Z,11.47
2018-11-06T08:32:59.155Z,10.87
2018-11-06T08:35:29.816Z,12.17
2018-11-06T08:38:00.474Z,10.00
2018-11-06T08:40:31.172Z,9.90
2018-11-06T08:43:01.900Z,12.97
2018-11-06T08:45:32.564Z,10.97
2018-11-06T08:48:03.199Z,9.57
2018-11-06T08:50:33.864Z,12.50
2018-11-06T08:53:04.560Z,11.97
2018-11-06T08:55:35.232Z,9.53
2018-11-06T08:58:05.947Z,10.87
2018-11-06T09:00:36.646Z,8.83
2018-11-06T09:03:07.308Z,10.63
2018-11-06T09:05:38.036Z,9.73
2018-11-06T09:08:08.698Z,13.50
2018-11-06T09:10:39.378Z,9.63
2018-11-06T09:13:10.033Z,9.63
2018-11-06T09:15:40.656Z,11.73
2018-11-06T09:18:11.343Z,9.47
2018-11-06T09:20:42.051Z,10.70
2018-11-06T09:23:12.758Z,8.23
2018-11-06T09:25:43.449Z,12.57
2018-11-06T09:28:14.110Z,13.70
2018-11-06T09:30:44.850Z,15.00
2018-11-06T09:33:15.517Z,12.30
2018-11-06T09:35:46.148Z,13.30
2018-11-06T09:38:16.825Z,13.03
2018-11-06T09:40:47.539Z,8.27
2018-11-06T09:43:18.173Z,11.00
2018-11-06T09:45:48.796Z,9.87
2018-11-06T09:48:19.501Z,11.07
2018-11-06T09:50:50.214Z,9.63
2018-11-06T09:53:20.988Z,8.90
2018-11-06T09:55:51.664Z,9.37
2018-11-06T09:58:22.334Z,7.90
2018-11-06T10:00:53.012Z,6.40
2018-11-06T10:03:23.717Z,7.73
2018-11-06T10:05:54.348Z,7.20
2018-11-06T10:08:25.011Z,6.53
2018-11-06T10:10:55.690Z,8.10
2018-11-06T10:13:26.348Z,10.50
2018-11-06T10:15:57.013Z,10.43
2018-11-06T10:18:27.664Z,6.90
2018-11-06T10:20:58.321Z,6.90
2018-11-06T10:23:29.034Z,8.73
2018-11-06T10:25:59.715Z,8.13
2018-11-06T10:28:30.391Z,7.80
2018-11-06T10:31:01.074Z,7.00
2018-11-06T10:33:31.831Z,7.57
2018-11-06T10:36:02.466Z,7.17
2018-11-06T10:38:33.116Z,8.77
2018-11-06T10:41:03.728Z,9.80
2018-11-06T10:43:34.459Z,7.87
2018-11-06T10:46:05.272Z,9.73
2018-11-06T10:48:35.930Z,7.20
2018-11-06T10:51:06.891Z,6.53
2018-11-06T10:53:37.538Z,9.37
2018-11-06T10:56:08.234Z,8.80
2018-11-06T10:58:38.940Z,9.67
2018-11-06T11:02:18.773Z,11.00
2018-11-06T11:04:49.897Z,7.00
2018-11-06T11:07:20.584Z,7.70
2018-11-06T11:09:51.239Z,7.13
2018-11-06T11:12:21.963Z,9.20
2018-11-06T11:14:52.617Z,8.40
2018-11-06T11:17:23.232Z,7.33
2018-11-06T11:19:53.944Z,7.47
2018-11-06T11:22:24.621Z,14.60
2018-11-06T11:24:55.360Z,12.87
2018-11-06T11:27:25.988Z,10.63
2018-11-06T11:29:56.650Z,9.53
2018-11-06T11:32:27.335Z,11.23
2018-11-06T11:34:57.990Z,11.23
2018-11-06T11:37:28.701Z,9.40
2018-11-06T11:39:59.355Z,9.67
2018-11-06T11:42:30.008Z,7.67
2018-11-06T11:45:00.671Z,11.17
2018-11-06T11:47:31.313Z,8.93
2018-11-06T11:50:02.027Z,10.73
2018-11-06T11:52:32.679Z,10.27
2018-11-06T11:55:03.352Z,10.53
2018-11-06T11:57:33.980Z,8.80
2018-11-06T12:00:05.038Z,9.17
2018-11-06T12:02:35.691Z,11.83
2018-11-06T12:05:08.001Z,8.87
2018-11-06T12:07:38.737Z,8.20
2018-11-06T12:10:11.074Z,12.20
2018-11-06T12:12:42.005Z,11.70
2018-11-06T12:15:15.494Z,12.33
2018-11-06T12:17:46.947Z,11.37
2018-11-06T12:20:18.002Z,10.60
2018-11-06T12:22:48.732Z,11.27
2018-11-06T12:25:19.742Z,11.13
2018-11-06T12:27:50.082Z,11.23
2018-11-06T12:30:20.794Z,8.97
2018-11-06T12:32:51.479Z,9.73
2018-11-06T12:35:22.171Z,9.73
2018-11-06T12:37:52.801Z,9.77
2018-11-06T12:40:23.488Z,8.47
2018-11-06T12:42:54.368Z,9.87
2018-11-06T12:45:25.025Z,13.83
2018-11-06T12:47:55.676Z,8.07
2018-11-06T12:50:26.428Z,10.67
2018-11-06T12:52:57.022Z,12.63
2018-11-06T12:55:27.674Z,9.43
2018-11-06T12:57:58.265Z,8.90
2018-11-06T13:00:28.928Z,13.43
2018-11-06T13:02:59.590Z,10.50
2018-11-06T13:05:30.279Z,8.83
2018-11-06T13:08:00.917Z,7.23
2018-11-06T13:10:31.602Z,8.37
2018-11-06T13:13:02.227Z,8.07
2018-11-06T13:15:32.903Z,11.27
2018-11-06T13:18:03.768Z,9.33
2018-11-06T13:20:34.480Z,9.27
2018-11-06T13:23:05.210Z,7.27
2018-11-06T13:25:35.906Z,11.17
2018-11-06T13:28:06.631Z,9.67
2018-11-06T13:30:37.357Z,8.87
2018-11-06T13:33:08.043Z,7.60
2018-11-06T13:35:38.674Z,11.70
2018-11-06T13:38:09.311Z,10.63
2018-11-06T13:40:40.047Z,11.43
2018-11-06T13:43:10.802Z,12.20
2018-11-06T13:45:41.764Z,9.23
2018-11-06T13:48:12.117Z,7.80
2018-11-06T13:50:42.757Z,10.37
2018-11-06T13:53:13.435Z,9.17
2018-11-06T13:55:44.106Z,8.87
2018-11-06T13:58:14.724Z,9.63
2018-11-06T14:00:45.362Z,10.57
2018-11-06T14:03:15.980Z,8.20
2018-11-06T14:05:46.653Z,10.73
2018-11-06T14:08:17.279Z,9.33
2018-11-06T14:10:47.920Z,9.47
2018-11-06T14:13:18.565Z,6.60
2018-11-06T14:15:49.219Z,8.97
2018-11-06T14:18:19.915Z,9.27
2018-11-06T14:20:50.552Z,10.27
2018-11-06T14:23:21.253Z,7.20
2018-11-06T14:25:51.862Z,7.33
2018-11-06T14:28:22.544Z,9.03
2018-11-06T14:30:53.156Z,8.50
2018-11-06T14:33:23.812Z,8.13
2018-11-06T14:35:54.628Z,6.37
2018-11-06T14:38:25.295Z,8.97
2018-11-06T14:40:55.877Z,7.43
2018-11-06T14:43:26.612Z,7.17
2018-11-06T14:45:57.278Z,8.37
2018-11-06T14:48:27.999Z,6.63
2018-11-06T14:50:58.710Z,6.87
2018-11-06T14:53:29.713Z,6.03
2018-11-06T14:56:00.485Z,7.63
2018-11-06T14:58:31.077Z,9.43
2018-11-06T15:01:01.737Z,6.93
2018-11-06T15:03:32.366Z,8.10
2018-11-06T15:06:03.044Z,8.33
2018-11-06T15:08:33.729Z,7.13
2018-11-06T15:11:04.395Z,9.20
2018-11-06T15:13:35.000Z,5.97
2018-11-06T15:16:05.869Z,8.97
2018-11-06T15:18:36.483Z,6.50
2018-11-06T15:21:07.311Z,7.47
2018-11-06T15:23:37.931Z,4.47
2018-11-06T15:26:08.566Z,6.63
2018-11-06T15:28:39.207Z,9.67
2018-11-06T15:31:09.883Z,8.00
2018-11-06T15:33:40.490Z,9.67
2018-11-06T15:36:11.128Z,6.53
2018-11-06T15:38:41.757Z,7.37
2018-11-06T15:41:12.475Z,8.37
2018-11-06T15:43:43.139Z,8.97
2018-11-06T15:46:13.764Z,7.53
2018-11-06T15:48:44.468Z,5.97
2018-11-06T15:51:15.003Z,9.70
2018-11-06T15:53:45.677Z,6.90
2018-11-06T15:56:16.326Z,8.27
2018-11-06T15:58:47.040Z,7.00
2018-11-06T16:01:17.759Z,8.27
2018-11-06T16:03:48.467Z,12.33
2018-11-06T16:06:19.372Z,9.30
2018-11-06T16:08:50.097Z,8.67
2018-11-06T16:11:20.907Z,9.17
2018-11-06T16:13:51.507Z,10.03
2018-11-06T16:16:22.186Z,8.40
2018-11-06T16:18:53.002Z,9.07
2018-11-06T16:21:23.640Z,9.53
2018-11-06T16:23:54.360Z,7.50
2018-11-06T16:26:24.991Z,7.87
2018-11-06T16:28:55.685Z,8.20
2018-11-06T16:31:26.367Z,9.07
2018-11-06T16:33:57.086Z,10.50
2018-11-06T16:36:27.767Z,10.17
2018-11-06T16:38:58.450Z,10.50
2018-11-06T16:41:29.147Z,11.03
2018-11-06T16:43:59.779Z,8.37
2018-11-06T16:46:30.468Z,10.20
2018-11-06T16:49:01.104Z,10.37
2018-11-06T16:51:31.827Z,8.37
2018-11-06T16:54:02.450Z,7.83
2018-11-06T16:56:33.113Z,7.30
2018-11-06T16:59:03.849Z,9.47
2018-11-06T17:01:34.487Z,8.70
2018-11-06T17:04:05.527Z,6.47
2018-11-06T17:06:41.476Z,7.23
2018-11-06T17:09:12.130Z,7.20
2018-11-06T17:11:42.784Z,10.07
2018-11-06T17:14:13.752Z,8.60
2018-11-06T17:16:44.551Z,7.40
2018-11-06T17:19:15.603Z,8.87
2018-11-06T17:21:46.248Z,7.43
2018-11-06T17:24:16.889Z,8.87
2018-11-06T17:26:47.532Z,8.57
2018-11-06T17:29:18.172Z,9.03
2018-11-06T17:31:48.888Z,7.60
2018-11-06T17:34:19.569Z,11.80
2018-11-06T17:36:50.246Z,9.33
2018-11-06T17:39:20.938Z,9.83
2018-11-06T17:41:51.742Z,8.67
2018-11-06T17:44:22.503Z,9.07
2018-11-06T17:46:53.217Z,7.27
2018-11-06T17:49:23.802Z,7.73
2018-11-06T17:51:54.470Z,7.57
2018-11-06T17:54:25.213Z,9.43
2018-11-06T17:56:55.913Z,7.83
2018-11-06T17:59:26.527Z,9.90
2018-11-06T18:01:57.157Z,6.90
2018-11-06T18:04:27.647Z,12.57
2018-11-06T18:06:58.196Z,8.83
2018-11-06T18:09:28.850Z,8.33
2018-11-06T18:11:59.574Z,8.63
2018-11-06T18:14:30.499Z,5.67
2018-11-06T18:17:01.261Z,5.50
2018-11-06T18:19:32.108Z,6.23
2018-11-06T18:22:02.755Z,9.40
2018-11-06T18:24:33.450Z,4.90
2018-11-06T18:27:04.104Z,6.87
2018-11-06T18:29:34.805Z,5.37
2018-11-06T18:32:05.757Z,3.77
2018-11-06T18:34:36.395Z,6.03
2018-11-06T18:37:07.152Z,4.67
2018-11-06T18:39:37.790Z,3.80
2018-11-06T18:42:08.466Z,4.20
2018-11-06T18:44:39.134Z,4.97
2018-11-06T18:47:09.802Z,5.87
2018-11-06T18:49:40.598Z,3.20
2018-11-06T18:52:11.241Z,4.17
2018-11-06T18:54:41.911Z,7.13
2018-11-06T18:57:12.545Z,3.80
2018-11-06T18:59:43.175Z,3.43
2018-11-06T19:02:13.793Z,3.83
2018-11-06T19:04:44.479Z,5.13
2018-11-06T19:07:16.019Z,4.33
2018-11-06T19:09:46.688Z,4.17
2018-11-06T19:12:17.365Z,5.80
2018-11-06T19:14:48.167Z,3.77
2018-11-06T19:17:18.901Z,3.83
2018-11-06T19:19:49.564Z,3.90
2018-11-06T19:22:20.208Z,4.57
2018-11-06T19:24:51.082Z,4.23
2018-11-06T19:27:21.767Z,4.33
2018-11-06T19:29:52.721Z,5.00
2018-11-06T19:32:23.398Z,3.80
2018-11-06T19:34:54.108Z,5.93
2018-11-06T19:37:24.806Z,5.10
2018-11-06T19:39:55.471Z,6.63
2018-11-06T19:42:26.154Z,5.37
2018-11-06T19:44:56.839Z,4.97
2018-11-06T19:47:27.605Z,4.93
2018-11-06T19:49:58.202Z,5.33
2018-11-06T19:52:28.772Z,4.87
2018-11-06T19:54:59.472Z,5.40
2018-11-06T19:57:30.345Z,5.33
2018-11-06T20:00:00.940Z,5.53
2018-11-06T20:02:32.469Z,6.10
2018-11-06T20:05:03.207Z,5.67
2018-11-06T20:07:33.871Z,5.27
2018-11-06T20:10:04.865Z,5.30
2018-11-06T20:12:35.549Z,6.47
2018-11-06T20:15:08.958Z,5.60
2018-11-06T20:17:40.670Z,6.53
2018-11-06T20:20:15.824Z,6.20
2018-11-06T20:22:46.755Z,5.07
2018-11-06T20:25:17.585Z,7.43
2018-11-06T20:27:48.512Z,5.20
2018-11-06T20:30:21.716Z,7.27
2018-11-06T20:32:52.483Z,6.30
2018-11-06T20:35:23.292Z,6.93
2018-11-06T20:37:54.229Z,5.20
2018-11-06T20:40:26.041Z,7.77
2018-11-06T20:42:56.860Z,6.40
2018-11-06T20:45:27.550Z,6.53
2018-11-06T20:47:58.324Z,7.13
2018-11-06T20:50:29.176Z,7.47
2018-11-06T20:52:59.972Z,5.70
2018-11-06T20:55:30.834Z,7.03
2018-11-06T20:58:02.648Z,6.47
2018-11-06T21:00:33.403Z,6.70
2018-11-06T21:03:04.223Z,8.63
2018-11-06T21:05:35.036Z,8.77
2018-11-06T21:08:05.791Z,6.67
2018-11-06T21:10:36.531Z,6.53
2018-11-06T21:13:07.446Z,8.43
2018-11-06T21:15:38.311Z,6.73
2018-11-06T21:18:09.184Z,7.40
2018-11-06T21:20:40.508Z,7.00
2018-11-06T21:23:11.284Z,6.77
2018-11-06T21:25:42.212Z,5.77
2018-11-06T21:28:12.660Z,6.47
2018-11-06T21:30:43.604Z,7.60
2018-11-06T21:33:14.891Z,7.33
2018-11-06T21:35:45.526Z,7.30
2018-11-06T21:38:16.146Z,8.93
2018-11-06T21:40:46.863Z,6.80
2018-11-06T21:43:17.483Z,6.60
2018-11-06T21:45:48.264Z,8.23
2018-11-06T21:48:19.147Z,6.40
2018-11-06T21:50:49.909Z,7.93
2018-11-06T21:53:20.572Z,6.47
2018-11-06T21:55:51.289Z,8.47
2018-11-06T21:58:21.901Z,8.33
2018-11-06T22:00:52.686Z,6.80
2018-11-06T22:03:23.416Z,6.93
2018-11-06T22:05:54.029Z,6.93
2018-11-06T22:08:24.693Z,6.87
2018-11-06T22:10:55.320Z,7.50
2018-11-06T22:13:25.976Z,6.83
2018-11-06T22:15:56.629Z,8.23
2018-11-06T22:18:27.302Z,7.50
2018-11-06T22:20:57.919Z,6.90
2018-11-06T22:23:28.575Z,7.27
2018-11-06T22:25:59.180Z,7.40
2018-11-06T22:28:29.876Z,9.10
2018-11-06T22:31:00.505Z,9.67
2018-11-06T22:33:34.204Z,9.17
2018-11-06T22:36:04.960Z,9.67
2018-11-06T22:38:35.616Z,8.63
2018-11-06T22:41:06.486Z,7.63
2018-11-06T22:43:37.160Z,8.17
2018-11-06T22:46:07.810Z,7.80
2018-11-06T22:48:38.480Z,7.40
2018-11-06T22:51:09.105Z,12.00
2018-11-06T22:53:39.823Z,8.43
2018-11-06T22:56:10.460Z,9.10
2018-11-06T22:58:41.163Z,7.83
2018-11-06T23:01:17.771Z,7.70
2018-11-06T23:03:48.470Z,8.37
2018-11-06T23:06:19.868Z,9.07
2018-11-06T23:08:50.311Z,9.57
2018-11-06T23:11:20.946Z,8.47
2018-11-06T23:13:52.302Z,9.10
2018-11-06T23:16:22.948Z,9.57
2018-11-06T23:18:53.696Z,9.90
2018-11-06T23:21:24.352Z,10.13
2018-11-06T23:23:54.974Z,8.20
2018-11-06T23:26:25.733Z,8.57
2018-11-06T23:28:56.351Z,10.20
2018-11-06T23:31:27.050Z,7.67
2018-11-06T23:33:57.623Z,8.47
2018-11-06T23:36:28.264Z,8.10
2018-11-06T23:38:58.958Z,10.17
2018-11-06T23:41:29.612Z,10.23
2018-11-06T23:44:00.242Z,8.20
2018-11-06T23:46:30.839Z,9.80
2018-11-06T23:49:01.484Z,8.40
2018-11-06T23:51:32.107Z,9.30
2018-11-06T23:54:05.694Z,8.07
2018-11-06T23:56:36.354Z,7.40
2018-11-06T23:59:07.146Z,9.50
